sensor_id;sensor_type;location;lat;lon;timestamp;temperature;humidity
25973;DHT22;13765;51.166;4.466;2022-09-09T00:02:18;15.50;99.90
25973;DHT22;13765;51.166;4.466;2022-09-09T00:05:35;15.60;99.90
25973;DHT22;13765;51.166;4.466;2022-09-09T00:16:07;15.50;99.90
25973;DHT22;13765;51.166;4.466;2022-09-09T00:18:44;15.50;99.90
25973;DHT22;13765;51.166;4.466;2022-09-09T00:21:19;15.50;99.90
25973;DHT22;13765;51.166;4.466;2022-09-09T00:23:52;15.40;99.90
25973;DHT22;13765;51.166;4.466;2022-09-09T00:32:14;15.30;99.90
25973;DHT22;13765;51.166;4.466;2022-09-09T00:34:54;15.20;99.90
25973;DHT22;13765;51.166;4.466;2022-09-09T00:37:26;15.30;99.90
25973;DHT22;13765;51.166;4.466;2022-09-09T00:40:00;15.20;99.90
25973;DHT22;13765;51.166;4.466;2022-09-09T00:42:44;15.40;99.90
25973;DHT22;13765;51.166;4.466;2022-09-09T00:45:26;15.30;99.90
25973;DHT22;13765;51.166;4.466;2022-09-09T00:47:57;15.30;99.90
25973;DHT22;13765;51.166;4.466;2022-09-09T00:50:53;15.30;99.90
25973;DHT22;13765;51.166;4.466;2022-09-09T00:54:07;15.40;99.90
25973;DHT22;13765;51.166;4.466;2022-09-09T00:56:46;15.40;99.90
25973;DHT22;13765;51.166;4.466;2022-09-09T00:59:21;15.40;99.90
25973;DHT22;13765;51.166;4.466;2022-09-09T01:01:50;15.40;99.90
25973;DHT22;13765;51.166;4.466;2022-09-09T01:04:25;15.30;99.90
25973;DHT22;13765;51.166;4.466;2022-09-09T01:07:17;15.20;99.90
25973;DHT22;13765;51.166;4.466;2022-09-09T01:14:48;15.10;99.90
25973;DHT22;13765;51.166;4.466;2022-09-09T01:17:20;15.10;99.90
25973;DHT22;13765;51.166;4.466;2022-09-09T01:22:59;15.20;99.90
25973;DHT22;13765;51.166;4.466;2022-09-09T01:28:31;15.20;99.90
25973;DHT22;13765;51.166;4.466;2022-09-09T01:30:59;15.30;99.90
25973;DHT22;13765;51.166;4.466;2022-09-09T01:33:26;15.30;99.90
25973;DHT22;13765;51.166;4.466;2022-09-09T01:36:13;15.30;99.90
25973;DHT22;13765;51.166;4.466;2022-09-09T01:38:40;15.20;99.90
25973;DHT22;13765;51.166;4.466;2022-09-09T01:41:06;15.20;99.90
25973;DHT22;13765;51.166;4.466;2022-09-09T01:43:35;15.10;99.90
25973;DHT22;13765;51.166;4.466;2022-09-09T01:46:01;15.00;99.90
25973;DHT22;13765;51.166;4.466;2022-09-09T01:48:29;15.10;99.90
25973;DHT22;13765;51.166;4.466;2022-09-09T01:50:55;15.10;99.90
25973;DHT22;13765;51.166;4.466;2022-09-09T01:53:22;15.10;99.90
25973;DHT22;13765;51.166;4.466;2022-09-09T01:56:10;15.10;99.90
25973;DHT22;13765;51.166;4.466;2022-09-09T01:59:06;15.10;99.90
25973;DHT22;13765;51.166;4.466;2022-09-09T02:07:34;15.00;99.90
25973;DHT22;13765;51.166;4.466;2022-09-09T02:10:25;15.00;99.90
25973;DHT22;13765;51.166;4.466;2022-09-09T02:13:05;14.90;99.90
25973;DHT22;13765;51.166;4.466;2022-09-09T02:15:47;14.80;99.90
25973;DHT22;13765;51.166;4.466;2022-09-09T02:21:11;14.90;99.90
25973;DHT22;13765;51.166;4.466;2022-09-09T02:23:42;14.90;99.90
25973;DHT22;13765;51.166;4.466;2022-09-09T02:26:12;14.90;99.90
25973;DHT22;13765;51.166;4.466;2022-09-09T02:28:43;14.90;99.90
25973;DHT22;13765;51.166;4.466;2022-09-09T02:31:14;14.80;99.90
25973;DHT22;13765;51.166;4.466;2022-09-09T02:33:45;14.70;99.90
25973;DHT22;13765;51.166;4.466;2022-09-09T02:36:17;14.80;99.90
25973;DHT22;13765;51.166;4.466;2022-09-09T02:38:46;14.70;99.90
25973;DHT22;13765;51.166;4.466;2022-09-09T02:41:27;14.80;99.90
25973;DHT22;13765;51.166;4.466;2022-09-09T02:43:54;14.80;99.90
25973;DHT22;13765;51.166;4.466;2022-09-09T02:46:35;14.80;99.90
25973;DHT22;13765;51.166;4.466;2022-09-09T02:49:09;14.90;99.90
25973;DHT22;13765;51.166;4.466;2022-09-09T02:54:28;14.90;99.90
25973;DHT22;13765;51.166;4.466;2022-09-09T02:57:10;14.90;99.90
25973;DHT22;13765;51.166;4.466;2022-09-09T02:59:37;14.90;99.90
25973;DHT22;13765;51.166;4.466;2022-09-09T03:02:03;14.80;99.90
25973;DHT22;13765;51.166;4.466;2022-09-09T03:04:29;14.80;99.90
25973;DHT22;13765;51.166;4.466;2022-09-09T03:06:57;14.70;99.90
25973;DHT22;13765;51.166;4.466;2022-09-09T03:09:27;14.80;99.90
25973;DHT22;13765;51.166;4.466;2022-09-09T03:11:56;14.90;99.90
25973;DHT22;13765;51.166;4.466;2022-09-09T03:14:22;14.80;99.90
25973;DHT22;13765;51.166;4.466;2022-09-09T03:16:53;14.70;99.90
25973;DHT22;13765;51.166;4.466;2022-09-09T03:19:22;14.80;99.90
25973;DHT22;13765;51.166;4.466;2022-09-09T03:21:49;14.90;99.90
25973;DHT22;13765;51.166;4.466;2022-09-09T03:24:15;14.90;99.90
25973;DHT22;13765;51.166;4.466;2022-09-09T03:26:42;14.90;99.90
25973;DHT22;13765;51.166;4.466;2022-09-09T03:29:10;14.80;99.90
25973;DHT22;13765;51.166;4.466;2022-09-09T03:31:40;14.90;99.90
25973;DHT22;13765;51.166;4.466;2022-09-09T03:34:08;14.90;99.90
25973;DHT22;13765;51.166;4.466;2022-09-09T03:36:35;15.00;99.90
25973;DHT22;13765;51.166;4.466;2022-09-09T03:39:01;15.00;99.90
25973;DHT22;13765;51.166;4.466;2022-09-09T03:41:29;15.00;99.90
25973;DHT22;13765;51.166;4.466;2022-09-09T03:43:55;15.10;99.90
25973;DHT22;13765;51.166;4.466;2022-09-09T03:46:22;15.10;99.90
25973;DHT22;13765;51.166;4.466;2022-09-09T03:48:51;15.20;99.90
25973;DHT22;13765;51.166;4.466;2022-09-09T03:51:18;15.30;99.90
25973;DHT22;13765;51.166;4.466;2022-09-09T03:53:47;15.30;99.90
25973;DHT22;13765;51.166;4.466;2022-09-09T03:56:13;15.40;99.90
25973;DHT22;13765;51.166;4.466;2022-09-09T03:58:39;15.50;99.90
25973;DHT22;13765;51.166;4.466;2022-09-09T04:01:12;15.50;99.90
25973;DHT22;13765;51.166;4.466;2022-09-09T04:03:43;15.50;99.90
25973;DHT22;13765;51.166;4.466;2022-09-09T04:06:14;15.60;99.90
25973;DHT22;13765;51.166;4.466;2022-09-09T04:08:40;15.60;99.90
25973;DHT22;13765;51.166;4.466;2022-09-09T04:11:07;15.60;99.90
25973;DHT22;13765;51.166;4.466;2022-09-09T04:13:34;15.50;99.90
25973;DHT22;13765;51.166;4.466;2022-09-09T04:16:02;15.50;99.90
25973;DHT22;13765;51.166;4.466;2022-09-09T04:18:32;15.60;99.90
25973;DHT22;13765;51.166;4.466;2022-09-09T04:21:00;15.60;99.90
25973;DHT22;13765;51.166;4.466;2022-09-09T04:23:31;15.60;99.90
25973;DHT22;13765;51.166;4.466;2022-09-09T04:25:59;15.60;99.90
25973;DHT22;13765;51.166;4.466;2022-09-09T04:28:29;15.60;99.90
25973;DHT22;13765;51.166;4.466;2022-09-09T04:31:07;15.60;99.90
25973;DHT22;13765;51.166;4.466;2022-09-09T04:33:36;15.60;99.90
25973;DHT22;13765;51.166;4.466;2022-09-09T04:36:06;15.70;99.90
25973;DHT22;13765;51.166;4.466;2022-09-09T04:38:32;15.70;99.90
25973;DHT22;13765;51.166;4.466;2022-09-09T04:40:58;15.70;99.90
25973;DHT22;13765;51.166;4.466;2022-09-09T04:43:25;15.70;99.90
25973;DHT22;13765;51.166;4.466;2022-09-09T04:45:56;15.80;99.90
25973;DHT22;13765;51.166;4.466;2022-09-09T04:48:23;15.70;99.90
25973;DHT22;13765;51.166;4.466;2022-09-09T04:51:04;15.70;99.90
25973;DHT22;13765;51.166;4.466;2022-09-09T04:53:31;15.70;99.90
25973;DHT22;13765;51.166;4.466;2022-09-09T04:56:20;15.70;99.90
25973;DHT22;13765;51.166;4.466;2022-09-09T04:58:46;15.70;99.90
25973;DHT22;13765;51.166;4.466;2022-09-09T05:01:15;15.70;99.90
25973;DHT22;13765;51.166;4.466;2022-09-09T05:03:41;15.70;99.90
25973;DHT22;13765;51.166;4.466;2022-09-09T05:06:12;15.80;99.90
25973;DHT22;13765;51.166;4.466;2022-09-09T05:08:40;15.80;99.90
25973;DHT22;13765;51.166;4.466;2022-09-09T05:11:34;15.70;99.90
25973;DHT22;13765;51.166;4.466;2022-09-09T05:14:04;15.80;99.90
25973;DHT22;13765;51.166;4.466;2022-09-09T05:16:38;15.70;99.90
25973;DHT22;13765;51.166;4.466;2022-09-09T05:19:04;15.70;99.90
25973;DHT22;13765;51.166;4.466;2022-09-09T05:21:29;15.70;99.90
25973;DHT22;13765;51.166;4.466;2022-09-09T05:23:56;15.70;99.90
25973;DHT22;13765;51.166;4.466;2022-09-09T05:26:22;15.70;99.90
25973;DHT22;13765;51.166;4.466;2022-09-09T05:28:48;15.80;99.90
25973;DHT22;13765;51.166;4.466;2022-09-09T05:31:16;15.90;99.90
25973;DHT22;13765;51.166;4.466;2022-09-09T05:33:43;15.90;99.90
25973;DHT22;13765;51.166;4.466;2022-09-09T05:36:13;16.00;99.90
25973;DHT22;13765;51.166;4.466;2022-09-09T05:38:43;16.10;99.90
25973;DHT22;13765;51.166;4.466;2022-09-09T05:41:09;16.10;99.90
25973;DHT22;13765;51.166;4.466;2022-09-09T05:43:36;16.00;99.90
25973;DHT22;13765;51.166;4.466;2022-09-09T05:46:21;16.00;99.90
25973;DHT22;13765;51.166;4.466;2022-09-09T05:48:49;16.00;99.90
25973;DHT22;13765;51.166;4.466;2022-09-09T05:51:24;16.20;99.90
25973;DHT22;13765;51.166;4.466;2022-09-09T05:53:51;16.30;99.90
25973;DHT22;13765;51.166;4.466;2022-09-09T05:56:22;16.40;99.90
25973;DHT22;13765;51.166;4.466;2022-09-09T05:58:49;16.50;99.90
25973;DHT22;13765;51.166;4.466;2022-09-09T06:01:21;16.60;99.90
25973;DHT22;13765;51.166;4.466;2022-09-09T06:03:48;16.60;99.90
25973;DHT22;13765;51.166;4.466;2022-09-09T06:06:16;16.60;99.90
25973;DHT22;13765;51.166;4.466;2022-09-09T06:08:44;16.60;99.90
25973;DHT22;13765;51.166;4.466;2022-09-09T06:11:12;16.50;99.90
25973;DHT22;13765;51.166;4.466;2022-09-09T06:13:38;16.50;99.90
25973;DHT22;13765;51.166;4.466;2022-09-09T06:16:05;16.50;99.90
25973;DHT22;13765;51.166;4.466;2022-09-09T06:18:33;16.60;99.90
25973;DHT22;13765;51.166;4.466;2022-09-09T06:21:01;16.60;99.90
25973;DHT22;13765;51.166;4.466;2022-09-09T06:23:30;16.60;99.90
25973;DHT22;13765;51.166;4.466;2022-09-09T06:26:03;16.60;99.90
25973;DHT22;13765;51.166;4.466;2022-09-09T06:28:31;16.60;99.90
25973;DHT22;13765;51.166;4.466;2022-09-09T06:31:03;16.60;99.90
25973;DHT22;13765;51.166;4.466;2022-09-09T06:33:38;16.70;99.90
25973;DHT22;13765;51.166;4.466;2022-09-09T06:36:15;16.90;99.90
25973;DHT22;13765;51.166;4.466;2022-09-09T06:38:44;17.00;99.90
25973;DHT22;13765;51.166;4.466;2022-09-09T06:41:14;17.10;99.90
25973;DHT22;13765;51.166;4.466;2022-09-09T06:43:42;17.10;99.90
25973;DHT22;13765;51.166;4.466;2022-09-09T06:46:13;17.20;99.90
25973;DHT22;13765;51.166;4.466;2022-09-09T06:48:40;17.20;99.90
25973;DHT22;13765;51.166;4.466;2022-09-09T06:51:08;17.20;99.90
25973;DHT22;13765;51.166;4.466;2022-09-09T06:53:38;17.30;99.90
25973;DHT22;13765;51.166;4.466;2022-09-09T06:58:41;17.20;99.90
25973;DHT22;13765;51.166;4.466;2022-09-09T07:01:15;17.10;99.90
25973;DHT22;13765;51.166;4.466;2022-09-09T07:03:41;17.10;99.90
25973;DHT22;13765;51.166;4.466;2022-09-09T07:06:09;17.00;99.90
25973;DHT22;13765;51.166;4.466;2022-09-09T07:08:41;16.90;99.90
25973;DHT22;13765;51.166;4.466;2022-09-09T07:11:08;16.90;99.90
25973;DHT22;13765;51.166;4.466;2022-09-09T07:13:34;17.00;99.90
25973;DHT22;13765;51.166;4.466;2022-09-09T07:16:15;17.10;99.90
25973;DHT22;13765;51.166;4.466;2022-09-09T07:18:44;17.20;99.90
25973;DHT22;13765;51.166;4.466;2022-09-09T07:21:14;17.20;99.90
25973;DHT22;13765;51.166;4.466;2022-09-09T07:23:41;17.20;99.90
25973;DHT22;13765;51.166;4.466;2022-09-09T07:26:12;17.30;99.90
25973;DHT22;13765;51.166;4.466;2022-09-09T07:28:40;17.30;99.90
25973;DHT22;13765;51.166;4.466;2022-09-09T07:31:13;17.30;99.90
25973;DHT22;13765;51.166;4.466;2022-09-09T07:33:39;17.30;99.90
25973;DHT22;13765;51.166;4.466;2022-09-09T07:36:12;17.30;99.90
25973;DHT22;13765;51.166;4.466;2022-09-09T07:38:40;17.30;99.90
25973;DHT22;13765;51.166;4.466;2022-09-09T07:41:08;17.20;99.90
25973;DHT22;13765;51.166;4.466;2022-09-09T07:43:43;17.30;99.90
25973;DHT22;13765;51.166;4.466;2022-09-09T07:46:11;17.20;99.90
25973;DHT22;13765;51.166;4.466;2022-09-09T07:48:47;17.30;99.90
25973;DHT22;13765;51.166;4.466;2022-09-09T07:51:18;17.30;99.90
25973;DHT22;13765;51.166;4.466;2022-09-09T07:53:48;17.40;99.90
25973;DHT22;13765;51.166;4.466;2022-09-09T07:56:16;17.40;99.90
25973;DHT22;13765;51.166;4.466;2022-09-09T07:58:50;17.50;99.90
25973;DHT22;13765;51.166;4.466;2022-09-09T08:01:22;17.60;99.90
25973;DHT22;13765;51.166;4.466;2022-09-09T08:03:57;17.60;99.90
25973;DHT22;13765;51.166;4.466;2022-09-09T08:06:31;17.50;99.90
25973;DHT22;13765;51.166;4.466;2022-09-09T08:08:58;17.60;99.90
25973;DHT22;13765;51.166;4.466;2022-09-09T08:11:26;17.50;99.90
25973;DHT22;13765;51.166;4.466;2022-09-09T08:13:53;17.70;99.90
25973;DHT22;13765;51.166;4.466;2022-09-09T08:16:22;17.70;99.90
25973;DHT22;13765;51.166;4.466;2022-09-09T08:18:49;17.80;99.90
25973;DHT22;13765;51.166;4.466;2022-09-09T08:21:21;17.70;99.90
25973;DHT22;13765;51.166;4.466;2022-09-09T08:23:47;17.50;99.90
25973;DHT22;13765;51.166;4.466;2022-09-09T08:26:22;17.50;99.90
25973;DHT22;13765;51.166;4.466;2022-09-09T08:28:51;17.50;99.90
25973;DHT22;13765;51.166;4.466;2022-09-09T08:31:30;17.40;99.90
25973;DHT22;13765;51.166;4.466;2022-09-09T08:33:57;17.50;99.90
25973;DHT22;13765;51.166;4.466;2022-09-09T08:36:28;17.60;99.90
25973;DHT22;13765;51.166;4.466;2022-09-09T08:38:56;17.80;99.90
25973;DHT22;13765;51.166;4.466;2022-09-09T08:55:54;17.80;99.90
25973;DHT22;13765;51.166;4.466;2022-09-09T08:58:27;17.80;99.90
25973;DHT22;13765;51.166;4.466;2022-09-09T09:01:14;17.80;99.90
25973;DHT22;13765;51.166;4.466;2022-09-09T09:06:23;17.60;99.90
25973;DHT22;13765;51.166;4.466;2022-09-09T09:09:36;17.70;99.90
25973;DHT22;13765;51.166;4.466;2022-09-09T09:12:02;17.60;99.90
25973;DHT22;13765;51.166;4.466;2022-09-09T09:14:34;17.70;99.90
25973;DHT22;13765;51.166;4.466;2022-09-09T09:17:03;17.60;99.90
25973;DHT22;13765;51.166;4.466;2022-09-09T09:19:32;17.50;99.90
25973;DHT22;13765;51.166;4.466;2022-09-09T09:22:19;17.50;99.90
25973;DHT22;13765;51.166;4.466;2022-09-09T09:32:40;17.30;99.90
25973;DHT22;13765;51.166;4.466;2022-09-09T09:35:12;17.30;99.90
25973;DHT22;13765;51.166;4.466;2022-09-09T09:37:40;17.30;99.90
25973;DHT22;13765;51.166;4.466;2022-09-09T09:40:18;17.30;99.90
25973;DHT22;13765;51.166;4.466;2022-09-09T09:45:27;17.30;99.90
25973;DHT22;13765;51.166;4.466;2022-09-09T09:48:02;17.30;99.90
25973;DHT22;13765;51.166;4.466;2022-09-09T09:50:29;17.30;99.90
25973;DHT22;13765;51.166;4.466;2022-09-09T09:53:00;17.40;99.90
25973;DHT22;13765;51.166;4.466;2022-09-09T09:55:31;17.30;99.90
25973;DHT22;13765;51.166;4.466;2022-09-09T09:58:15;17.40;99.90
25973;DHT22;13765;51.166;4.466;2022-09-09T10:00:51;17.40;99.90
25973;DHT22;13765;51.166;4.466;2022-09-09T10:05:48;17.40;99.90
25973;DHT22;13765;51.166;4.466;2022-09-09T10:08:15;17.40;99.90
25973;DHT22;13765;51.166;4.466;2022-09-09T10:13:48;17.30;99.90
25973;DHT22;13765;51.166;4.466;2022-09-09T10:19:16;17.20;99.90
25973;DHT22;13765;51.166;4.466;2022-09-09T10:22:02;17.20;99.90
25973;DHT22;13765;51.166;4.466;2022-09-09T10:30:19;17.40;99.90
25973;DHT22;13765;51.166;4.466;2022-09-09T10:32:59;17.50;99.90
25973;DHT22;13765;51.166;4.466;2022-09-09T10:35:34;17.60;99.90
25973;DHT22;13765;51.166;4.466;2022-09-09T10:38:57;17.50;99.90
25973;DHT22;13765;51.166;4.466;2022-09-09T10:41:31;17.70;99.90
25973;DHT22;13765;51.166;4.466;2022-09-09T10:52:16;18.10;99.90
25973;DHT22;13765;51.166;4.466;2022-09-09T10:57:36;18.40;99.90
25973;DHT22;13765;51.166;4.466;2022-09-09T11:00:06;18.40;99.90
25973;DHT22;13765;51.166;4.466;2022-09-09T11:02:35;18.50;99.90
25973;DHT22;13765;51.166;4.466;2022-09-09T11:05:10;18.60;99.90
25973;DHT22;13765;51.166;4.466;2022-09-09T11:07:49;18.50;99.90
25973;DHT22;13765;51.166;4.466;2022-09-09T11:10:46;18.40;99.90
25973;DHT22;13765;51.166;4.466;2022-09-09T11:13:26;18.40;99.90
25973;DHT22;13765;51.166;4.466;2022-09-09T11:16:18;18.40;99.90
25973;DHT22;13765;51.166;4.466;2022-09-09T11:18:49;18.40;99.90
25973;DHT22;13765;51.166;4.466;2022-09-09T11:21:45;18.40;99.90
25973;DHT22;13765;51.166;4.466;2022-09-09T11:27:11;18.90;99.90
25973;DHT22;13765;51.166;4.466;2022-09-09T11:35:43;19.10;99.90
25973;DHT22;13765;51.166;4.466;2022-09-09T11:40:40;19.20;99.90
25973;DHT22;13765;51.166;4.466;2022-09-09T11:45:38;19.20;99.90
25973;DHT22;13765;51.166;4.466;2022-09-09T11:48:21;19.20;99.90
25973;DHT22;13765;51.166;4.466;2022-09-09T11:51:02;19.40;99.90
25973;DHT22;13765;51.166;4.466;2022-09-09T11:53:28;19.60;99.90
25973;DHT22;13765;51.166;4.466;2022-09-09T11:56:08;19.80;99.90
25973;DHT22;13765;51.166;4.466;2022-09-09T11:59:24;19.90;99.90
25973;DHT22;13765;51.166;4.466;2022-09-09T12:01:48;19.80;99.90
25973;DHT22;13765;51.166;4.466;2022-09-09T12:04:39;19.80;99.90
25973;DHT22;13765;51.166;4.466;2022-09-09T12:12:36;20.00;99.90
25973;DHT22;13765;51.166;4.466;2022-09-09T12:17:43;20.20;99.90
25973;DHT22;13765;51.166;4.466;2022-09-09T12:20:26;20.40;99.90
25973;DHT22;13765;51.166;4.466;2022-09-09T12:26:26;20.20;99.90
25973;DHT22;13765;51.166;4.466;2022-09-09T12:29:14;20.20;99.90
25973;DHT22;13765;51.166;4.466;2022-09-09T12:34:38;20.10;99.90
25973;DHT22;13765;51.166;4.466;2022-09-09T12:40:00;20.10;99.90
25973;DHT22;13765;51.166;4.466;2022-09-09T12:42:27;20.10;99.90
25973;DHT22;13765;51.166;4.466;2022-09-09T12:44:59;20.20;99.90
25973;DHT22;13765;51.166;4.466;2022-09-09T12:47:47;20.20;99.90
25973;DHT22;13765;51.166;4.466;2022-09-09T12:50:25;20.20;99.90
25973;DHT22;13765;51.166;4.466;2022-09-09T12:52:57;20.10;99.90
25973;DHT22;13765;51.166;4.466;2022-09-09T12:55:31;19.90;99.90
25973;DHT22;13765;51.166;4.466;2022-09-09T12:57:59;19.90;99.90
25973;DHT22;13765;51.166;4.466;2022-09-09T13:00:26;19.90;99.90
25973;DHT22;13765;51.166;4.466;2022-09-09T13:02:56;20.00;99.90
25973;DHT22;13765;51.166;4.466;2022-09-09T13:05:36;20.40;99.90
25973;DHT22;13765;51.166;4.466;2022-09-09T13:08:10;20.80;99.90
25973;DHT22;13765;51.166;4.466;2022-09-09T13:10:58;20.90;99.90
25973;DHT22;13765;51.166;4.466;2022-09-09T13:13:35;21.00;99.90
25973;DHT22;13765;51.166;4.466;2022-09-09T13:16:02;21.10;99.90
25973;DHT22;13765;51.166;4.466;2022-09-09T13:18:32;21.20;99.90
25973;DHT22;13765;51.166;4.466;2022-09-09T13:21:01;21.30;99.90
25973;DHT22;13765;51.166;4.466;2022-09-09T13:23:31;21.20;99.90
25973;DHT22;13765;51.166;4.466;2022-09-09T13:26:03;21.00;99.90
25973;DHT22;13765;51.166;4.466;2022-09-09T13:28:33;20.90;99.90
25973;DHT22;13765;51.166;4.466;2022-09-09T13:31:33;20.60;99.90
25973;DHT22;13765;51.166;4.466;2022-09-09T13:33:58;20.90;99.90
25973;DHT22;13765;51.166;4.466;2022-09-09T13:36:32;21.20;99.90
25973;DHT22;13765;51.166;4.466;2022-09-09T13:39:03;21.40;99.90
25973;DHT22;13765;51.166;4.466;2022-09-09T13:41:36;21.50;99.90
25973;DHT22;13765;51.166;4.466;2022-09-09T13:44:03;21.60;99.90
25973;DHT22;13765;51.166;4.466;2022-09-09T13:46:41;21.80;99.90
25973;DHT22;13765;51.166;4.466;2022-09-09T13:54:33;21.50;99.90
25973;DHT22;13765;51.166;4.466;2022-09-09T13:56:58;21.60;99.90
25973;DHT22;13765;51.166;4.466;2022-09-09T13:59:29;21.50;99.90
25973;DHT22;13765;51.166;4.466;2022-09-09T14:01:57;21.50;99.90
25973;DHT22;13765;51.166;4.466;2022-09-09T14:04:23;21.60;99.90
25973;DHT22;13765;51.166;4.466;2022-09-09T14:06:50;21.50;99.90
25973;DHT22;13765;51.166;4.466;2022-09-09T14:09:21;21.50;99.90
25973;DHT22;13765;51.166;4.466;2022-09-09T14:11:49;21.20;99.90
25973;DHT22;13765;51.166;4.466;2022-09-09T14:14:15;21.10;99.90
25973;DHT22;13765;51.166;4.466;2022-09-09T14:16:41;20.70;99.90
25973;DHT22;13765;51.166;4.466;2022-09-09T14:19:08;20.70;99.90
25973;DHT22;13765;51.166;4.466;2022-09-09T14:21:34;20.60;99.90
25973;DHT22;13765;51.166;4.466;2022-09-09T14:24:00;20.60;99.90
25973;DHT22;13765;51.166;4.466;2022-09-09T14:26:29;20.60;99.90
25973;DHT22;13765;51.166;4.466;2022-09-09T14:28:57;20.70;99.90
25973;DHT22;13765;51.166;4.466;2022-09-09T14:31:26;20.90;99.90
25973;DHT22;13765;51.166;4.466;2022-09-09T14:33:54;20.80;99.90
25973;DHT22;13765;51.166;4.466;2022-09-09T14:36:22;20.70;99.90
25973;DHT22;13765;51.166;4.466;2022-09-09T14:38:49;20.70;99.90
25973;DHT22;13765;51.166;4.466;2022-09-09T14:41:17;20.70;99.90
25973;DHT22;13765;51.166;4.466;2022-09-09T14:43:45;21.00;99.90
25973;DHT22;13765;51.166;4.466;2022-09-09T14:46:16;21.30;99.90
25973;DHT22;13765;51.166;4.466;2022-09-09T14:48:42;21.60;99.90
25973;DHT22;13765;51.166;4.466;2022-09-09T14:51:13;21.80;99.90
25973;DHT22;13765;51.166;4.466;2022-09-09T14:53:40;21.90;99.90
25973;DHT22;13765;51.166;4.466;2022-09-09T14:56:18;21.90;99.90
25973;DHT22;13765;51.166;4.466;2022-09-09T14:58:45;22.00;99.90
25973;DHT22;13765;51.166;4.466;2022-09-09T15:01:14;22.00;99.90
25973;DHT22;13765;51.166;4.466;2022-09-09T15:03:48;22.00;99.90
25973;DHT22;13765;51.166;4.466;2022-09-09T15:06:14;21.90;99.90
25973;DHT22;13765;51.166;4.466;2022-09-09T15:08:44;21.70;99.90
25973;DHT22;13765;51.166;4.466;2022-09-09T15:11:13;21.50;99.90
25973;DHT22;13765;51.166;4.466;2022-09-09T15:13:42;21.40;99.90
25973;DHT22;13765;51.166;4.466;2022-09-09T15:16:18;21.00;99.90
25973;DHT22;13765;51.166;4.466;2022-09-09T15:18:50;20.80;99.90
25973;DHT22;13765;51.166;4.466;2022-09-09T15:21:19;20.70;99.90
25973;DHT22;13765;51.166;4.466;2022-09-09T15:23:48;20.70;99.90
25973;DHT22;13765;51.166;4.466;2022-09-09T15:26:17;20.50;99.90
25973;DHT22;13765;51.166;4.466;2022-09-09T15:28:44;20.30;99.90
25973;DHT22;13765;51.166;4.466;2022-09-09T15:31:14;20.10;99.90
25973;DHT22;13765;51.166;4.466;2022-09-09T15:33:47;20.10;99.90
25973;DHT22;13765;51.166;4.466;2022-09-09T15:36:22;20.20;99.90
25973;DHT22;13765;51.166;4.466;2022-09-09T15:38:52;20.40;99.90
25973;DHT22;13765;51.166;4.466;2022-09-09T15:41:22;20.60;99.90
25973;DHT22;13765;51.166;4.466;2022-09-09T15:43:53;20.80;99.90
25973;DHT22;13765;51.166;4.466;2022-09-09T15:46:38;20.90;99.90
25973;DHT22;13765;51.166;4.466;2022-09-09T15:49:08;20.80;99.90
25973;DHT22;13765;51.166;4.466;2022-09-09T15:51:35;20.70;99.90
25973;DHT22;13765;51.166;4.466;2022-09-09T15:54:03;20.50;99.90
25973;DHT22;13765;51.166;4.466;2022-09-09T15:56:29;20.40;99.90
25973;DHT22;13765;51.166;4.466;2022-09-09T15:58:58;20.00;99.90
25973;DHT22;13765;51.166;4.466;2022-09-09T16:01:28;19.80;99.90
25973;DHT22;13765;51.166;4.466;2022-09-09T16:03:57;19.70;99.90
25973;DHT22;13765;51.166;4.466;2022-09-09T16:06:24;19.60;99.90
25973;DHT22;13765;51.166;4.466;2022-09-09T16:08:54;19.50;99.90
25973;DHT22;13765;51.166;4.466;2022-09-09T16:11:23;19.50;99.90
25973;DHT22;13765;51.166;4.466;2022-09-09T16:13:55;19.20;99.90
25973;DHT22;13765;51.166;4.466;2022-09-09T16:16:23;19.20;99.90
25973;DHT22;13765;51.166;4.466;2022-09-09T16:18:54;19.10;99.90
25973;DHT22;13765;51.166;4.466;2022-09-09T16:21:21;19.20;99.90
25973;DHT22;13765;51.166;4.466;2022-09-09T16:23:52;19.30;99.90
25973;DHT22;13765;51.166;4.466;2022-09-09T16:26:23;19.40;99.90
25973;DHT22;13765;51.166;4.466;2022-09-09T16:28:49;19.60;99.90
25973;DHT22;13765;51.166;4.466;2022-09-09T16:31:17;19.70;99.90
25973;DHT22;13765;51.166;4.466;2022-09-09T16:33:44;19.70;99.90
25973;DHT22;13765;51.166;4.466;2022-09-09T16:36:13;19.70;99.90
25973;DHT22;13765;51.166;4.466;2022-09-09T16:38:41;19.70;99.90
25973;DHT22;13765;51.166;4.466;2022-09-09T16:41:09;19.60;99.90
25973;DHT22;13765;51.166;4.466;2022-09-09T16:43:37;19.50;99.90
25973;DHT22;13765;51.166;4.466;2022-09-09T16:46:23;19.60;99.90
25973;DHT22;13765;51.166;4.466;2022-09-09T16:48:49;19.60;99.90
25973;DHT22;13765;51.166;4.466;2022-09-09T16:51:17;19.60;99.90
25973;DHT22;13765;51.166;4.466;2022-09-09T16:53:46;19.70;99.90
25973;DHT22;13765;51.166;4.466;2022-09-09T16:56:17;19.70;99.90
25973;DHT22;13765;51.166;4.466;2022-09-09T16:58:48;19.60;99.90
25973;DHT22;13765;51.166;4.466;2022-09-09T17:01:19;19.60;99.90
25973;DHT22;13765;51.166;4.466;2022-09-09T17:03:47;19.50;99.90
25973;DHT22;13765;51.166;4.466;2022-09-09T17:06:15;19.30;99.90
25973;DHT22;13765;51.166;4.466;2022-09-09T17:08:43;19.30;99.90
25973;DHT22;13765;51.166;4.466;2022-09-09T17:11:16;19.20;99.90
25973;DHT22;13765;51.166;4.466;2022-09-09T17:13:47;19.20;99.90
25973;DHT22;13765;51.166;4.466;2022-09-09T17:16:17;19.10;99.90
25973;DHT22;13765;51.166;4.466;2022-09-09T17:18:46;19.20;99.90
25973;DHT22;13765;51.166;4.466;2022-09-09T17:21:16;19.20;99.90
25973;DHT22;13765;51.166;4.466;2022-09-09T17:23:43;19.20;99.90
25973;DHT22;13765;51.166;4.466;2022-09-09T17:26:16;19.10;99.90
25973;DHT22;13765;51.166;4.466;2022-09-09T17:28:46;19.00;99.90
25973;DHT22;13765;51.166;4.466;2022-09-09T17:31:16;19.00;99.90
25973;DHT22;13765;51.166;4.466;2022-09-09T17:33:50;18.90;99.90
25973;DHT22;13765;51.166;4.466;2022-09-09T17:36:24;18.90;99.90
25973;DHT22;13765;51.166;4.466;2022-09-09T17:38:54;19.00;99.90
25973;DHT22;13765;51.166;4.466;2022-09-09T17:41:26;19.00;99.90
25973;DHT22;13765;51.166;4.466;2022-09-09T17:43:53;19.00;99.90
25973;DHT22;13765;51.166;4.466;2022-09-09T17:46:24;18.90;99.90
25973;DHT22;13765;51.166;4.466;2022-09-09T17:48:54;19.00;99.90
25973;DHT22;13765;51.166;4.466;2022-09-09T17:51:25;18.90;99.90
25973;DHT22;13765;51.166;4.466;2022-09-09T17:53:56;18.80;99.90
25973;DHT22;13765;51.166;4.466;2022-09-09T17:56:29;18.80;99.90
25973;DHT22;13765;51.166;4.466;2022-09-09T17:59:00;18.80;99.90
25973;DHT22;13765;51.166;4.466;2022-09-09T18:01:33;18.80;99.90
25973;DHT22;13765;51.166;4.466;2022-09-09T18:04:03;18.80;99.90
25973;DHT22;13765;51.166;4.466;2022-09-09T18:06:36;18.80;99.90
25973;DHT22;13765;51.166;4.466;2022-09-09T18:09:08;18.70;99.90